Milwaukee, WI (53211)

1:39 PM CST on February 14, 2016 (GMT -0600)
Shorewood | | Change Station
CLOSE
Current Station
Personal Weather Station
Location: Shorewood, WI
Elevation: 686 ft
Nearby Weather Stations

Elev 686 ft 43.09 °N, 87.89 °W | Updated 4 minutes ago

Snow
Snow
20.3 °F
Feels Like 15 °F
N
3.8
Wind Variable Wind from ESE

Today
High -- | Low -- °F
--% Chance of Precip.
Yesterday
High -- | Low -- °F
Precip. -- in
Pressure 30.19 in
Visibility 2.5 miles
Clouds Mostly Cloudy 18400 ft
Overcast 4300 ft
Windchill 15 °F
Dew Point 13 °F
Humidity 73%
Rainfall 0.00 in
Snow Depth Not available.
6:51 AM 5:20 PM
Waxing Crescent, 44% visible
SPECI KMWC 141915Z 15009KT 2 1/2SM -SN BKN0184BKN019 OVC043 M07/M12 A3019
Pressure 30.19 in
Visibility 2.5 miles
Clouds Mostly Cloudy 18400 ft
Overcast 4300 ft
Windchill 15 °F
Dew Point 13 °F
Humidity 73%
Rainfall 0.00 in
Snow Depth Not available.
6:51 AM 5:20 PM
Waxing Crescent, 44% visible
SPECI KMWC 141915Z 15009KT 2 1/2SM -SN BKN0184BKN019 OVC043 M07/M12 A3019

10-Day Weather Forecast

Almanac

Astronomy

Feb. 14, 2016 Rise Set
Actual Time
Civil Twilight
Nautical Twilight
Astronomical Twilight
Moon
Length of Visible Light
Length of Day
Tomorrow will be .
, % of the Moon is Illuminated

Today's Extremes

State Highs State Lows

Community

WunderPhotos

Upload Photos

1,892,878 photos uploaded!

WunderBlog® & News

Nearby

Air Quality

  Air Quality AQ Index Pollutant
Not available.

Snow Depth

Station Depth Elevation

Earthquake Activity

City Distance Mag. Time & Date
Minimum magnitude displayed is 2.5.

Coastal Water Temperatures

Place Temperature

Stations

Nearby Weather Stations

Station Location Temp. Windchill Dew Point Humidity Wind Precip. Elev Updated Type
                   

Watches & Warnings

There are currently no watches in effect.